Time;durP1;ratioP1;P1;durP2;ratioP2;P2;SDS_P1;SDS_P2;PMS_P1;PMS_P2;Temp;Humidity;BMP_temperature;BMP_pressure;BME280_temperature;BME280_humidity;BME280_pressure;Samples;Min_cycle;Max_cycle;Signal;HPM_P1;HPM_P2
2023/01/16 00:02:03;;;;;;;27.67;24.75;;;22.10;78.20;;;;;;6226854;28;89091;-71
2023/01/16 00:05:06;;;;;;;28.13;25.10;;;22.10;78.20;;;;;;6224032;28;89138;-70
2023/01/16 00:08:08;;;;;;;26.58;23.83;;;22.10;78.10;;;;;;6220031;28;89124;-70
2023/01/16 00:11:10;;;;;;;26.88;23.95;;;22.10;78.30;;;;;;6220509;28;87260;-70
2023/01/16 00:14:12;;;;;;;26.50;23.58;;;22.10;78.30;;;;;;6210763;28;88476;-70
2023/01/16 00:17:15;;;;;;;26.65;23.73;;;22.10;78.20;;;;;;6219291;28;88907;-70
2023/01/16 00:20:18;;;;;;;26.45;23.42;;;22.00;78.10;;;;;;6216913;28;89249;-71
2023/01/16 00:23:20;;;;;;;26.13;23.23;;;22.00;79.10;;;;;;6229877;28;89104;-70
2023/01/16 00:26:22;;;;;;;25.85;23.00;;;22.00;78.10;;;;;;6218668;28;89047;-71
2023/01/16 00:29:24;;;;;;;24.35;21.85;;;22.00;78.20;;;;;;6224931;28;89484;-70
2023/01/16 00:32:28;;;;;;;24.75;22.15;;;22.00;78.30;;;;;;6223962;28;89173;-70
2023/01/16 00:35:30;;;;;;;25.05;22.33;;;22.00;78.30;;;;;;6230418;28;89105;-69
2023/01/16 00:38:33;;;;;;;24.40;21.77;;;22.00;78.20;;;;;;6230651;28;89165;-68
2023/01/16 00:41:35;;;;;;;24.88;22.27;;;22.00;78.20;;;;;;6219276;28;88546;-70
2023/01/16 00:44:37;;;;;;;23.73;21.23;;;22.00;78.20;;;;;;6217746;28;89462;-70
2023/01/16 00:47:40;;;;;;;22.65;20.25;;;22.00;78.30;;;;;;6217040;28;89197;-70
2023/01/16 00:50:42;;;;;;;24.17;21.58;;;22.00;78.30;;;;;;6219433;28;89941;-70
2023/01/16 00:53:44;;;;;;;22.95;20.55;;;21.90;78.20;;;;;;6227411;28;89299;-70
2023/01/16 00:56:46;;;;;;;22.52;20.23;;;21.90;78.30;;;;;;6220861;28;90214;-70
2023/01/16 00:59:49;;;;;;;24.02;21.55;;;21.90;78.30;;;;;;6229640;28;89191;-71
2023/01/16 01:02:53;;;;;;;22.42;20.13;;;21.90;79.10;;;;;;6228953;28;89288;-69
2023/01/16 01:05:55;;;;;;;22.88;20.48;;;21.90;78.30;;;;;;6230557;28;90759;-70
2023/01/16 01:08:57;;;;;;;22.52;19.98;;;21.90;78.30;;;;;;6219424;28;89290;-70
2023/01/16 01:12:00;;;;;;;22.25;19.75;;;21.90;78.30;;;;;;6213449;28;88419;-70
2023/01/16 01:15:02;;;;;;;22.00;19.75;;;21.90;78.30;;;;;;6211101;28;88173;-71
2023/01/16 01:18:06;;;;;;;21.95;19.75;;;21.90;78.30;;;;;;6218223;28;88860;-70
2023/01/16 01:21:09;;;;;;;22.05;19.85;;;21.80;78.20;;;;;;6220495;28;90397;-69
2023/01/16 01:24:11;;;;;;;21.27;19.02;;;21.90;78.30;;;;;;6215427;28;88824;-69
2023/01/16 01:27:13;;;;;;;20.60;18.50;;;21.80;78.30;;;;;;6219248;28;89074;-69
2023/01/16 01:30:16;;;;;;;21.33;19.13;;;21.80;78.30;;;;;;6219155;28;89059;-70
2023/01/16 01:33:19;;;;;;;21.60;19.40;;;21.80;78.30;;;;;;6228551;28;89138;-70
2023/01/16 01:36:21;;;;;;;20.10;18.10;;;21.80;78.30;;;;;;6210168;28;89051;-70
2023/01/16 01:39:23;;;;;;;20.67;18.58;;;21.80;78.30;;;;;;6212804;28;87971;-70
2023/01/16 01:42:43;;;;;;;20.42;18.30;;;21.80;78.30;;;;;;6230404;28;88311;-70
2023/01/16 01:45:52;;;;;;;20.48;18.38;;;21.80;78.30;;;;;;6229559;28;89091;-69
2023/01/16 01:49:01;;;;;;;19.70;17.70;;;21.80;78.40;;;;;;6224108;28;89195;-70
2023/01/16 01:52:07;;;;;;;19.20;17.23;;;21.80;78.40;;;;;;6224643;28;89974;-70
2023/01/16 01:55:12;;;;;;;19.65;17.65;;;21.80;78.40;;;;;;6222920;28;89051;-71
2023/01/16 01:58:21;;;;;;;19.15;17.27;;;21.80;78.30;;;;;;6224907;28;89064;-70
2023/01/16 02:01:24;;;;;;;19.23;17.30;;;21.80;78.40;;;;;;6220027;28;89154;-70
2023/01/16 02:04:31;;;;;;;18.17;16.45;;;21.70;78.30;;;;;;6228706;28;89117;-70
2023/01/16 02:07:35;;;;;;;18.17;16.38;;;21.70;78.30;;;;;;6212928;28;89109;-70
2023/01/16 02:10:41;;;;;;;18.55;16.65;;;21.80;78.40;;;;;;6208163;28;88125;-70
2023/01/16 02:13:43;;;;;;;17.65;15.93;;;21.80;78.40;;;;;;6218869;28;88937;-70
2023/01/16 02:20:20;;;;;;;18.02;16.13;;;21.70;78.40;;;;;;6228226;28;87038;-71
2023/01/16 02:24:13;;;;;;;16.38;14.68;;;21.70;78.40;;;;;;6225708;28;88924;-70
2023/01/16 02:27:39;;;;;;;17.58;15.88;;;21.70;78.30;;;;;;6191776;28;89958;-69
2023/01/16 02:31:10;;;;;;;16.98;15.27;;;21.70;78.30;;;;;;6227555;28;89012;-70
2023/01/16 02:34:30;;;;;;;17.65;15.85;;;21.70;78.30;;;;;;6228040;28;89101;-69
2023/01/16 02:37:44;;;;;;;16.48;14.77;;;21.70;78.40;;;;;;6224705;28;89075;-70
2023/01/16 02:40:58;;;;;;;16.85;15.07;;;21.60;78.30;;;;;;6222273;28;88633;-70
2023/01/16 02:44:11;;;;;;;16.08;14.48;;;21.70;78.40;;;;;;6224900;28;89469;-70
2023/01/16 02:47:20;;;;;;;15.75;14.20;;;21.60;78.40;;;;;;6222899;28;88046;-70
2023/01/16 02:50:28;;;;;;;16.27;14.57;;;21.60;78.40;;;;;;6231122;28;89107;-71
2023/01/16 02:53:35;;;;;;;15.70;14.05;;;21.60;78.40;;;;;;6230129;28;89062;-69
2023/01/16 02:56:45;;;;;;;14.90;13.40;;;21.60;78.40;;;;;;6226762;28;90085;-70
2023/01/16 02:59:49;;;;;;;15.35;13.85;;;21.60;78.40;;;;;;6233041;28;88007;-70
2023/01/16 03:02:53;;;;;;;14.85;13.38;;;21.60;78.40;;;;;;6228641;28;89691;-70
2023/01/16 03:06:03;;;;;;;14.30;12.80;;;21.60;78.50;;;;;;6232243;28;89076;-70
2023/01/16 03:09:32;;;;;;;14.65;13.07;;;21.60;78.40;;;;;;6230832;28;89067;-71
2023/01/16 03:12:43;;;;;;;14.15;12.75;;;21.60;78.40;;;;;;6207710;28;89177;-70
2023/01/16 03:15:53;;;;;;;14.23;12.77;;;21.50;78.40;;;;;;6219968;28;89293;-70
2023/01/16 03:19:07;;;;;;;13.93;12.52;;;21.50;78.40;;;;;;6223494;28;88393;-71
2023/01/16 03:22:13;;;;;;;13.85;12.52;;;21.50;78.40;;;;;;6227373;28;87986;-70
2023/01/16 03:25:25;;;;;;;14.35;12.90;;;21.50;78.50;;;;;;6225198;28;89079;-69
2023/01/16 03:28:35;;;;;;;13.38;12.00;;;21.50;78.40;;;;;;6206501;28;90114;-69
2023/01/16 03:31:42;;;;;;;12.85;11.52;;;21.50;78.50;;;;;;6207706;28;87909;-70
2023/01/16 03:34:52;;;;;;;13.18;11.88;;;21.50;78.50;;;;;;6208141;28;88995;-70
2023/01/16 03:37:57;;;;;;;12.82;11.52;;;21.50;78.50;;;;;;6224613;28;88984;-70
2023/01/16 03:41:05;;;;;;;12.73;11.43;;;21.50;78.50;;;;;;6231137;28;88295;-70
2023/01/16 03:44:10;;;;;;;13.07;11.77;;;21.50;78.50;;;;;;6230933;28;89495;-71
2023/01/16 03:47:20;;;;;;;12.63;11.32;;;21.50;78.50;;;;;;6231340;28;89174;-70
2023/01/16 03:50:25;;;;;;;12.32;11.10;;;21.50;78.50;;;;;;6222300;28;88361;-71
2023/01/16 03:53:30;;;;;;;12.68;11.38;;;21.50;78.60;;;;;;6209954;28;88934;-70
2023/01/16 03:56:37;;;;;;;11.52;10.32;;;21.40;78.40;;;;;;6231000;28;89433;-70
2023/01/16 03:59:42;;;;;;;11.73;10.63;;;21.40;78.40;;;;;;6210210;28;90120;-71
2023/01/16 04:02:50;;;;;;;11.88;10.73;;;21.40;78.50;;;;;;6224199;28;89167;-70
2023/01/16 04:05:58;;;;;;;11.60;10.50;;;21.40;78.50;;;;;;6216753;28;88990;-69
2023/01/16 04:09:04;;;;;;;11.80;10.60;;;21.40;78.50;;;;;;6228634;28;89073;-69
2023/01/16 04:12:08;;;;;;;11.93;10.73;;;21.40;78.50;;;;;;6219252;28;87206;-70
2023/01/16 04:15:10;;;;;;;11.80;10.70;;;21.40;78.50;;;;;;6218627;28;89006;-71
2023/01/16 04:18:13;;;;;;;11.07;9.98;;;21.40;78.50;;;;;;6232216;28;89210;-70
2023/01/16 04:21:17;;;;;;;11.25;10.15;;;21.40;78.60;;;;;;6229719;28;88437;-70
2023/01/16 04:24:19;;;;;;;10.85;9.85;;;21.40;78.40;;;;;;6222287;28;89183;-70
2023/01/16 04:27:22;;;;;;;10.68;9.68;;;21.40;78.40;;;;;;6226876;28;89077;-70
2023/01/16 04:30:24;;;;;;;10.80;9.70;;;21.40;78.30;;;;;;6229421;28;90391;-71
2023/01/16 04:33:26;;;;;;;10.63;9.60;;;21.50;78.30;;;;;;6231819;28;89078;-69
2023/01/16 04:36:30;;;;;;;10.38;9.38;;;21.40;78.30;;;;;;6229559;28;89035;-69
2023/01/16 04:39:33;;;;;;;10.45;9.43;;;21.40;78.30;;;;;;6231747;28;89075;-70
2023/01/16 04:42:35;;;;;;;10.15;9.15;;;21.50;78.30;;;;;;6226107;28;89074;-69
2023/01/16 04:45:39;;;;;;;10.63;9.63;;;21.50;78.30;;;;;;6221037;28;89130;-70
2023/01/16 04:48:41;;;;;;;9.23;8.43;;;21.50;78.30;;;;;;6219843;28;89048;-70
2023/01/16 04:51:44;;;;;;;9.75;8.75;;;21.50;78.20;;;;;;6229766;28;88411;-70
2023/01/16 04:54:46;;;;;;;9.55;8.70;;;21.50;78.20;;;;;;6216934;28;89124;-71
2023/01/16 04:57:48;;;;;;;9.63;8.73;;;21.50;78.10;;;;;;6215831;28;89134;-71
2023/01/16 05:00:50;;;;;;;9.30;8.40;;;21.50;78.10;;;;;;6221733;28;89942;-71
2023/01/16 05:03:52;;;;;;;9.20;8.30;;;21.60;78.10;;;;;;6226804;28;89088;-70
2023/01/16 05:06:56;;;;;;;8.90;8.02;;;21.60;78.00;;;;;;6221286;28;89090;-71
2023/01/16 05:09:58;;;;;;;8.80;8.00;;;21.60;78.00;;;;;;6229183;28;89051;-71
2023/01/16 05:13:00;;;;;;;9.02;8.07;;;21.60;77.90;;;;;;6224177;28;89206;-71
2023/01/16 05:16:03;;;;;;;8.65;7.80;;;21.70;77.90;;;;;;6229577;28;89085;-70
2023/01/16 05:19:05;;;;;;;8.85;8.02;;;21.70;77.90;;;;;;6231352;28;89134;-71
2023/01/16 05:22:08;;;;;;;8.63;7.72;;;21.70;78.00;;;;;;6228437;28;88333;-70
2023/01/16 05:25:10;;;;;;;8.55;7.75;;;21.70;77.90;;;;;;6226146;28;87782;-71
2023/01/16 05:28:12;;;;;;;8.18;7.38;;;21.70;77.80;;;;;;6230613;28;89140;-70
2023/01/16 05:31:14;;;;;;;8.10;7.40;;;21.80;77.90;;;;;;6228049;28;89006;-70
2023/01/16 05:34:16;;;;;;;9.13;7.85;;;21.80;77.80;;;;;;6222228;28;89051;-70
2023/01/16 05:37:20;;;;;;;7.97;7.20;;;21.80;77.70;;;;;;6206228;28;89083;-70
2023/01/16 05:40:22;;;;;;;7.75;7.03;;;21.80;77.70;;;;;;6206395;28;89166;-70
2023/01/16 05:43:24;;;;;;;7.72;7.03;;;21.80;77.70;;;;;;6229469;28;88265;-70
2023/01/16 05:46:26;;;;;;;7.70;7.00;;;21.80;77.70;;;;;;6228103;28;89177;-70
2023/01/16 05:49:28;;;;;;;7.40;6.70;;;21.80;77.60;;;;;;6226660;28;89486;-70
2023/01/16 05:52:32;;;;;;;7.32;6.63;;;21.80;77.60;;;;;;6221378;28;88328;-70
2023/01/16 05:55:42;;;;;;;7.30;6.60;;;21.80;77.60;;;;;;6226304;28;89145;-70
2023/01/16 05:58:44;;;;;;;6.97;6.20;;;21.80;77.60;;;;;;6228897;28;89110;-71
2023/01/16 06:01:46;;;;;;;7.10;6.40;;;21.80;77.50;;;;;;6218947;28;89996;-71
2023/01/16 06:04:48;;;;;;;7.30;6.60;;;21.90;77.60;;;;;;6219132;28;91478;-69
2023/01/16 06:07:56;;;;;;;6.90;6.30;;;21.90;77.60;;;;;;6226777;28;88348;-70
2023/01/16 06:10:59;;;;;;;6.78;6.18;;;21.90;77.50;;;;;;6220124;28;89018;-70
2023/01/16 06:14:03;;;;;;;6.25;5.65;;;21.90;77.40;;;;;;6219406;28;89157;-70
2023/01/16 06:17:05;;;;;;;6.93;6.22;;;21.90;77.40;;;;;;6217400;28;89049;-70
2023/01/16 06:20:08;;;;;;;6.45;5.85;;;21.90;77.40;;;;;;6216370;28;88307;-71
2023/01/16 06:23:11;;;;;;;6.50;5.90;;;21.90;77.30;;;;;;6226700;28;88370;-71
2023/01/16 06:26:13;;;;;;;6.32;5.72;;;21.90;77.30;;;;;;6224167;28;89088;-70
2023/01/16 06:29:15;;;;;;;6.50;5.90;;;21.90;77.30;;;;;;6210980;28;88939;-69
2023/01/16 06:32:17;;;;;;;6.07;5.47;;;21.90;77.20;;;;;;6232603;28;91516;-71
2023/01/16 06:35:19;;;;;;;6.40;5.80;;;21.90;77.20;;;;;;6233223;28;89070;-71
2023/01/16 06:38:23;;;;;;;5.80;5.30;;;21.90;77.20;;;;;;6232280;28;89015;-71
2023/01/16 06:41:25;;;;;;;6.00;5.50;;;22.00;77.20;;;;;;6233917;28;89115;-71
2023/01/16 06:44:27;;;;;;;6.03;5.43;;;22.00;77.10;;;;;;6219434;28;87973;-71
2023/01/16 06:47:30;;;;;;;5.80;5.30;;;22.00;77.10;;;;;;6233789;28;89058;-71
2023/01/16 06:50:33;;;;;;;5.75;5.25;;;22.00;77.10;;;;;;6220601;28;89205;-71
2023/01/16 06:53:36;;;;;;;5.63;5.13;;;22.00;77.10;;;;;;6219478;28;87711;-71
2023/01/16 06:56:38;;;;;;;5.93;5.43;;;22.10;77.10;;;;;;6224556;28;89025;-70
2023/01/16 06:59:40;;;;;;;5.60;5.10;;;22.00;77.90;;;;;;6232904;28;87992;-71
2023/01/16 07:02:42;;;;;;;5.72;5.22;;;22.00;77.00;;;;;;6232857;28;89960;-70
2023/01/16 07:05:46;;;;;;;5.00;4.60;;;22.00;76.90;;;;;;6233276;28;89208;-70
2023/01/16 07:08:52;;;;;;;5.90;5.28;;;22.00;76.90;;;;;;6231715;28;89052;-71
2023/01/16 07:11:54;;;;;;;5.45;4.95;;;22.00;76.90;;;;;;6223058;28;88973;-71
2023/01/16 07:25:10;;;;;;;5.20;4.70;;;22.10;76.80;;;;;;6225340;28;86643;-71
2023/01/16 07:28:12;;;;;;;5.00;4.55;;;22.10;76.80;;;;;;6219924;28;89092;-70
2023/01/16 07:31:15;;;;;;;4.90;4.40;;;22.10;76.80;;;;;;6220997;28;89116;-70
2023/01/16 07:34:17;;;;;;;5.15;4.65;;;22.10;76.70;;;;;;6227358;28;89130;-70
2023/01/16 07:37:19;;;;;;;4.63;4.22;;;22.10;76.70;;;;;;6231854;28;89261;-70
2023/01/16 07:40:22;;;;;;;4.88;4.47;;;22.10;76.70;;;;;;6232978;28;89309;-70
2023/01/16 07:43:24;;;;;;;4.85;4.40;;;22.20;76.80;;;;;;6219165;28;89494;-70
2023/01/16 07:46:26;;;;;;;4.85;4.45;;;22.10;76.60;;;;;;6232844;28;87990;-70
2023/01/16 07:49:28;;;;;;;4.90;4.43;;;22.10;76.60;;;;;;6211524;28;87973;-70
2023/01/16 07:52:30;;;;;;;4.35;3.95;;;22.10;76.60;;;;;;6227871;28;89064;-70
2023/01/16 07:55:34;;;;;;;4.40;4.00;;;22.10;76.60;;;;;;6228648;28;88325;-70
2023/01/16 07:58:37;;;;;;;4.63;4.22;;;22.10;76.60;;;;;;6218975;28;89102;-70
2023/01/16 08:01:40;;;;;;;4.40;4.00;;;22.20;76.60;;;;;;6230560;28;89136;-70
2023/01/16 08:04:42;;;;;;;4.22;3.83;;;22.20;76.60;;;;;;6231315;28;90299;-69
2023/01/16 08:07:46;;;;;;;4.70;4.30;;;22.20;76.70;;;;;;6227680;28;88894;-70
2023/01/16 08:10:54;;;;;;;4.53;4.13;;;22.20;76.60;;;;;;6208534;28;89046;-70
2023/01/16 08:13:56;;;;;;;4.30;3.90;;;22.20;76.60;;;;;;6209911;28;90172;-70
2023/01/16 08:16:58;;;;;;;4.22;3.83;;;22.20;76.60;;;;;;6220072;28;89127;-70
2023/01/16 08:20:00;;;;;;;4.05;3.75;;;22.20;76.60;;;;;;6220502;28;88923;-71
2023/01/16 08:23:02;;;;;;;4.50;4.00;;;22.20;76.60;;;;;;6232206;28;87973;-70
2023/01/16 08:26:06;;;;;;;4.00;3.70;;;22.20;76.60;;;;;;6232404;28;88307;-70
2023/01/16 08:29:09;;;;;;;4.53;4.13;;;22.20;76.60;;;;;;6230918;28;89172;-70
2023/01/16 08:32:11;;;;;;;4.10;3.70;;;22.20;76.60;;;;;;6231282;28;87995;-70
2023/01/16 08:35:13;;;;;;;4.30;3.90;;;22.20;76.60;;;;;;6231352;28;88922;-71
2023/01/16 08:38:15;;;;;;;4.43;3.92;;;22.20;76.50;;;;;;6210264;28;89013;-69
2023/01/16 08:51:24;;;;;;;3.60;3.30;;;22.20;76.40;;;;;;6217780;28;88165;-70
2023/01/16 08:54:27;;;;;;;3.47;3.17;;;22.20;76.40;;;;;;6226656;28;88347;-70
2023/01/16 08:57:32;;;;;;;3.67;3.35;;;22.30;76.60;;;;;;6229477;28;88007;-70
2023/01/16 09:00:35;;;;;;;3.58;3.28;;;22.30;76.50;;;;;;6227729;28;89020;-71
2023/01/16 09:03:37;;;;;;;4.10;3.70;;;22.30;76.50;;;;;;6222538;28;89057;-71
2023/01/16 09:06:39;;;;;;;3.42;3.13;;;22.30;76.40;;;;;;6230088;28;90000;-71
2023/01/16 09:09:41;;;;;;;3.70;3.40;;;22.30;76.50;;;;;;6218562;28;89412;-70
2023/01/16 09:16:04;;;;;;;3.45;3.15;;;22.30;76.40;;;;;;6223422;28;87950;-70
2023/01/16 09:19:06;;;;;;;3.50;3.20;;;22.30;76.40;;;;;;6227470;28;89070;-71
2023/01/16 09:22:08;;;;;;;3.58;3.28;;;22.30;76.40;;;;;;6228415;28;88981;-71
2023/01/16 09:25:10;;;;;;;3.55;3.10;;;22.40;76.60;;;;;;6230850;28;88983;-71
2023/01/16 09:28:14;;;;;;;3.40;3.10;;;22.30;76.40;;;;;;6230718;28;88439;-70
2023/01/16 09:31:18;;;;;;;3.28;2.97;;;22.30;76.40;;;;;;6230267;28;88979;-71
2023/01/16 09:34:20;;;;;;;3.38;3.08;;;22.30;76.40;;;;;;6230737;28;88783;-71
2023/01/16 09:37:23;;;;;;;3.40;3.10;;;22.40;76.50;;;;;;6229462;28;90108;-71
2023/01/16 09:40:25;;;;;;;3.00;2.70;;;22.30;77.30;;;;;;6231225;28;89279;-71
2023/01/16 09:43:38;;;;;;;2.90;2.70;;;22.30;76.40;;;;;;6219106;28;89027;-71
2023/01/16 09:46:45;;;;;;;3.03;2.72;;;22.40;76.40;;;;;;6230696;28;89047;-71
2023/01/16 09:49:49;;;;;;;3.05;2.75;;;22.40;76.40;;;;;;6229894;28;89318;-70
2023/01/16 09:59:37;;;;;;;2.90;2.63;;;22.40;77.40;;;;;;6219774;28;87391;-71
2023/01/16 10:02:39;;;;;;;3.30;2.90;;;22.40;76.50;;;;;;6218137;28;89053;-71
2023/01/16 10:05:50;;;;;;;2.92;2.63;;;22.40;76.50;;;;;;6231296;28;89300;-71
2023/01/16 10:09:07;;;;;;;3.33;3.03;;;22.40;76.50;;;;;;6223079;28;90091;-71
2023/01/16 10:12:14;;;;;;;3.10;2.80;;;22.40;76.50;;;;;;6219814;28;89076;-71
2023/01/16 10:15:25;;;;;;;2.75;2.50;;;22.40;76.50;;;;;;6233824;28;89425;-71
2023/01/16 10:18:38;;;;;;;2.97;2.78;;;22.50;76.60;;;;;;6234366;28;89515;-71
2023/01/16 10:22:05;;;;;;;3.20;2.90;;;22.50;76.60;;;;;;6223613;28;89181;-71
2023/01/16 10:25:19;;;;;;;3.30;3.00;;;22.50;76.60;;;;;;6217725;28;89211;-72
2023/01/16 10:28:37;;;;;;;3.03;2.70;;;22.50;76.60;;;;;;6224635;28;90365;-70
2023/01/16 10:31:44;;;;;;;2.55;2.35;;;22.50;76.60;;;;;;6231396;28;88417;-72
2023/01/16 10:34:55;;;;;;;3.22;2.92;;;22.50;76.60;;;;;;6226489;28;89113;-71
2023/01/16 10:38:08;;;;;;;3.00;2.70;;;22.50;76.60;;;;;;6222381;28;87993;-71
2023/01/16 10:51:15;;;;;;;2.60;2.40;;;22.40;76.40;;;;;;6233017;28;87643;-71
2023/01/16 10:54:17;;;;;;;2.40;2.20;;;22.50;76.40;;;;;;6221965;28;89187;-71
2023/01/16 10:57:21;;;;;;;3.17;2.90;;;22.50;76.40;;;;;;6231688;28;89930;-71
2023/01/16 11:00:29;;;;;;;2.63;2.42;;;22.50;76.40;;;;;;6220463;28;89133;-70
2023/01/16 11:03:40;;;;;;;2.58;2.38;;;22.50;76.50;;;;;;6220316;28;88372;-71
2023/01/16 11:06:43;;;;;;;2.30;2.10;;;22.50;76.50;;;;;;6231815;28;89103;-71
2023/01/16 11:09:46;;;;;;;2.40;2.20;;;22.50;76.40;;;;;;6223771;28;89172;-70
2023/01/16 11:19:44;;;;;;;2.50;2.30;;;22.50;76.40;;;;;;6221301;28;87047;-71
2023/01/16 11:22:53;;;;;;;2.35;2.15;;;22.50;76.40;;;;;;6222712;28;89646;-71
2023/01/16 11:25:58;;;;;;;2.22;2.03;;;22.50;76.40;;;;;;6230835;28;89182;-71
2023/01/16 11:29:02;;;;;;;2.30;2.10;;;22.50;76.30;;;;;;6232416;28;88984;-71
2023/01/16 11:32:07;;;;;;;2.40;2.20;;;22.60;76.40;;;;;;6229815;28;89367;-71
2023/01/16 11:35:14;;;;;;;2.47;2.28;;;22.50;76.30;;;;;;6233098;28;88381;-71
2023/01/16 11:38:18;;;;;;;2.20;2.00;;;22.50;76.30;;;;;;6233016;28;89121;-71
2023/01/16 11:41:24;;;;;;;2.30;2.10;;;22.50;76.20;;;;;;6212189;28;89018;-71
2023/01/16 11:48:02;;;;;;;2.28;2.08;;;22.50;76.10;;;;;;6188670;28;87989;-70
2023/01/16 11:51:07;;;;;;;2.33;2.13;;;22.50;76.10;;;;;;6208684;28;89085;-71
2023/01/16 11:54:15;;;;;;;2.45;2.25;;;22.50;76.10;;;;;;6212242;28;89405;-71
2023/01/16 11:57:29;;;;;;;2.88;2.45;;;22.50;76.10;;;;;;6213882;28;89387;-71
2023/01/16 12:00:55;;;;;;;1.90;1.80;;;22.50;76.10;;;;;;6231967;28;88925;-71
2023/01/16 12:04:09;;;;;;;2.20;2.00;;;22.60;76.20;;;;;;6223827;28;89127;-70
2023/01/16 12:07:18;;;;;;;2.30;2.10;;;22.60;76.20;;;;;;6217903;28;88278;-71
2023/01/16 12:10:31;;;;;;;2.28;2.08;;;22.50;76.10;;;;;;6220106;28;89033;-71
2023/01/16 12:17:17;;;;;;;2.17;1.95;;;22.50;76.10;;;;;;6221848;28;88698;-71
2023/01/16 12:20:26;;;;;;;2.38;2.10;;;22.50;76.10;;;;;;6214667;28;89131;-70
2023/01/16 12:23:46;;;;;;;2.30;2.10;;;22.50;76.10;;;;;;6223849;28;89263;-71
2023/01/16 12:27:00;;;;;;;1.75;1.63;;;22.60;76.10;;;;;;6229249;28;89018;-69
2023/01/16 12:30:09;;;;;;;2.00;1.80;;;22.50;76.10;;;;;;6206017;28;89092;-69
2023/01/16 12:33:21;;;;;;;1.75;1.65;;;22.60;76.10;;;;;;6222215;28;89165;-69
2023/01/16 12:36:35;;;;;;;1.90;1.80;;;22.60;76.10;;;;;;6231047;28;89056;-69
2023/01/16 12:39:46;;;;;;;1.88;1.75;;;22.50;76.10;;;;;;6231951;28;88364;-70
2023/01/16 12:46:26;;;;;;;1.67;1.58;;;22.60;76.10;;;;;;6232114;28;87369;-69
2023/01/16 12:49:42;;;;;;;2.08;1.88;;;22.50;76.10;;;;;;6209397;28;90227;-69
2023/01/16 12:53:01;;;;;;;1.75;1.65;;;22.50;76.00;;;;;;6219933;28;89069;-69
2023/01/16 12:56:21;;;;;;;2.03;1.83;;;22.50;76.10;;;;;;6222895;28;89465;-69
2023/01/16 12:59:28;;;;;;;1.60;1.50;;;22.50;76.10;;;;;;6215134;28;88824;-69
2023/01/16 13:02:36;;;;;;;1.70;1.60;;;22.50;76.10;;;;;;6220706;28;88091;-69
2023/01/16 13:05:40;;;;;;;2.10;1.90;;;22.60;76.20;;;;;;6221300;28;88043;-69
2023/01/16 13:08:52;;;;;;;2.28;2.08;;;22.60;76.20;;;;;;6216915;28;88857;-72
2023/01/16 13:15:27;;;;;;;1.80;1.70;;;22.60;76.10;;;;;;6228478;28;87365;-69
2023/01/16 13:18:35;;;;;;;1.88;1.70;;;22.60;76.10;;;;;;6220122;28;89029;-69
2023/01/16 13:21:44;;;;;;;1.80;1.70;;;22.60;76.20;;;;;;6207034;28;90143;-68
2023/01/16 13:24:51;;;;;;;1.65;1.55;;;22.50;76.10;;;;;;6207160;28;88948;-70
2023/01/16 13:28:01;;;;;;;1.70;1.60;;;22.60;76.20;;;;;;6205151;28;89095;-69
2023/01/16 13:31:07;;;;;;;1.60;1.50;;;22.50;76.10;;;;;;6219326;28;89271;-70
2023/01/16 13:34:16;;;;;;;1.92;1.75;;;22.60;76.20;;;;;;6220520;28;89405;-68
2023/01/16 13:37:42;;;;;;;1.60;1.50;;;22.60;76.10;;;;;;6230344;28;89115;-69
2023/01/16 13:40:56;;;;;;;1.73;1.63;;;22.60;76.20;;;;;;6227916;28;89440;-69
2023/01/16 13:47:30;;;;;;;1.70;1.60;;;22.60;76.90;;;;;;6225450;28;87253;-70
2023/01/16 13:50:36;;;;;;;1.50;1.40;;;22.60;77.00;;;;;;6208933;28;89067;-72
2023/01/16 13:53:40;;;;;;;1.60;1.50;;;22.60;76.10;;;;;;6224926;28;90574;-72
2023/01/16 13:56:42;;;;;;;1.60;1.50;;;22.60;76.00;;;;;;6225954;28;90346;-71
2023/01/16 13:59:49;;;;;;;1.48;1.38;;;22.60;76.10;;;;;;6206894;28;89158;-72
2023/01/16 14:03:24;;;;;;;1.50;1.40;;;22.60;76.00;;;;;;6219000;28;89315;-72
2023/01/16 14:06:27;;;;;;;1.80;1.70;;;22.60;76.10;;;;;;6222152;28;89101;-72
2023/01/16 14:09:28;;;;;;;1.67;1.58;;;22.60;76.10;;;;;;6218641;28;89171;-72
2023/01/16 14:12:34;;;;;;;1.42;1.33;;;22.60;76.10;;;;;;6227008;28;89195;-71
2023/01/16 14:19:24;;;;;;;1.60;1.50;;;22.60;76.10;;;;;;6205663;28;87273;-69
2023/01/16 14:25:55;;;;;;;1.40;1.30;;;22.60;76.10;;;;;;6228911;28;88157;-69
2023/01/16 14:29:00;;;;;;;1.45;1.35;;;22.60;76.10;;;;;;6228025;28;89362;-69
2023/01/16 14:32:06;;;;;;;1.30;1.20;;;22.60;77.00;;;;;;6229511;28;89090;-70
2023/01/16 14:35:15;;;;;;;1.30;1.20;;;22.60;76.10;;;;;;6230049;28;90169;-69
2023/01/16 14:38:20;;;;;;;1.27;1.17;;;22.60;76.10;;;;;;6229725;28;89339;-69
2023/01/16 14:55:33;;;;;;;1.42;1.33;;;22.60;76.20;;;;;;6230855;28;87243;-69
2023/01/16 14:58:40;;;;;;;1.40;1.30;;;22.60;76.20;;;;;;6218520;28;90007;-69
2023/01/16 15:05:09;;;;;;;1.30;1.20;;;22.60;76.20;;;;;;6221994;28;87321;-69
2023/01/16 15:08:15;;;;;;;1.40;1.30;;;22.60;76.20;;;;;;6230470;28;88753;-68
2023/01/16 15:11:44;;;;;;;1.33;1.23;;;22.60;76.10;;;;;;6232158;28;89122;-68
2023/01/16 15:14:57;;;;;;;1.30;1.20;;;22.60;76.20;;;;;;6220119;28;89173;-69
2023/01/16 15:24:46;;;;;;;1.73;1.27;;;22.60;76.10;;;;;;6221575;28;87328;-69
2023/01/16 15:27:54;;;;;;;1.30;1.20;;;22.60;76.10;;;;;;6231484;28;91074;-69
2023/01/16 15:31:01;;;;;;;1.30;1.20;;;22.60;76.10;;;;;;6222415;28;89935;-70
2023/01/16 15:34:05;;;;;;;1.40;1.30;;;22.60;76.10;;;;;;6227569;28;89091;-70
2023/01/16 15:37:21;;;;;;;1.30;1.20;;;22.60;76.10;;;;;;6233855;28;89179;-69
2023/01/16 15:40:25;;;;;;;1.20;1.10;;;22.60;76.10;;;;;;6222070;28;89090;-69
2023/01/16 15:47:00;;;;;;;1.20;1.10;;;22.60;76.10;;;;;;6221228;28;87303;-70
2023/01/16 15:50:16;;;;;;;1.17;1.08;;;22.60;76.10;;;;;;6220976;28;89988;-70
2023/01/16 15:53:20;;;;;;;1.30;1.20;;;22.60;76.00;;;;;;6221977;28;88186;-70
2023/01/16 15:56:25;;;;;;;1.20;1.10;;;22.60;76.00;;;;;;6226753;28;89441;-70
2023/01/16 15:59:30;;;;;;;1.30;1.20;;;22.60;76.00;;;;;;6225433;28;89103;-70
2023/01/16 16:02:33;;;;;;;1.23;1.13;;;22.60;76.00;;;;;;6207880;28;89646;-69
2023/01/16 16:05:36;;;;;;;1.65;1.52;;;22.60;75.90;;;;;;6220315;28;89109;-68
2023/01/16 16:08:44;;;;;;;1.30;1.20;;;22.60;75.90;;;;;;6208989;28;89103;-69
2023/01/16 16:11:54;;;;;;;1.10;1.00;;;22.60;76.00;;;;;;6220546;28;87858;-69
2023/01/16 16:18:38;;;;;;;1.40;1.30;;;22.60;75.90;;;;;;6224492;28;87980;-69
2023/01/16 16:22:47;;;;;;;1.40;1.25;;;22.60;75.90;;;;;;6218166;28;89183;-69
2023/01/16 16:25:19;;;;;;;1.30;1.20;;;22.60;75.90;;;;;;6230502;28;88313;-70
2023/01/16 16:28:23;;;;;;;1.48;1.38;;;22.60;75.80;;;;;;6207890;28;89062;-69
2023/01/16 16:31:30;;;;;;;1.33;1.23;;;22.60;75.80;;;;;;6220983;28;89373;-70
2023/01/16 16:34:32;;;;;;;1.20;1.10;;;22.60;75.70;;;;;;6231908;28;90199;-69
2023/01/16 16:37:35;;;;;;;1.20;1.10;;;22.60;75.80;;;;;;6228447;28;87864;-69
2023/01/16 16:40:39;;;;;;;1.50;1.35;;;22.70;75.90;;;;;;6209189;28;89028;-69
2023/01/16 16:43:46;;;;;;;1.60;1.25;;;22.60;75.80;;;;;;6231232;28;89133;-69
2023/01/16 16:46:48;;;;;;;1.23;1.13;;;22.70;76.80;;;;;;6231784;28;89480;-69
2023/01/16 16:49:51;;;;;;;1.33;1.20;;;22.70;75.90;;;;;;6218844;28;89166;-69
2023/01/16 16:53:03;;;;;;;1.40;1.30;;;22.70;75.90;;;;;;6229444;28;89047;-69
2023/01/16 16:56:12;;;;;;;1.70;1.25;;;22.70;75.80;;;;;;6229500;28;88705;-69
2023/01/16 16:59:17;;;;;;;1.30;1.20;;;22.70;75.80;;;;;;6215481;28;89014;-70
2023/01/16 17:02:19;;;;;;;1.42;1.33;;;22.70;75.70;;;;;;6209640;28;89062;-69
2023/01/16 17:05:21;;;;;;;1.33;1.23;;;22.60;75.70;;;;;;6217820;28;88849;-70
2023/01/16 17:08:27;;;;;;;1.90;1.30;;;22.70;75.70;;;;;;6220510;28;89020;-70
2023/01/16 17:11:31;;;;;;;1.40;1.30;;;22.70;75.70;;;;;;6230207;28;88341;-69
2023/01/16 17:14:33;;;;;;;1.30;1.20;;;22.70;75.70;;;;;;6230900;28;89060;-68
2023/01/16 17:17:36;;;;;;;1.42;1.20;;;22.70;75.70;;;;;;6230260;28;89322;-70
2023/01/16 17:20:39;;;;;;;1.20;1.10;;;22.60;75.70;;;;;;6229929;28;89067;-70
2023/01/16 17:23:41;;;;;;;1.30;1.20;;;22.70;75.70;;;;;;6229915;28;89111;-70
2023/01/16 17:26:45;;;;;;;1.42;1.33;;;22.70;75.70;;;;;;6230434;28;88548;-70
2023/01/16 17:29:51;;;;;;;1.45;1.35;;;22.70;75.70;;;;;;6229802;28;89523;-69
2023/01/16 17:32:58;;;;;;;1.45;1.20;;;22.70;75.70;;;;;;6230231;28;89116;-69
2023/01/16 17:36:09;;;;;;;1.45;1.35;;;22.70;75.60;;;;;;6202821;28;88107;-69
2023/01/16 17:39:11;;;;;;;1.48;1.38;;;22.70;75.70;;;;;;6229223;28;87920;-69
2023/01/16 17:45:56;;;;;;;1.60;1.50;;;22.70;75.60;;;;;;6219553;28;88816;-70
2023/01/16 17:48:58;;;;;;;1.40;1.30;;;22.70;75.50;;;;;;6210947;28;87259;-69
2023/01/16 17:52:01;;;;;;;1.33;1.23;;;22.70;75.50;;;;;;6230089;28;89373;-70